Create Custom Reports and Graphics: Custom Report

Belmont 8000'

Squaw Valley

7/8/20 12:15 AM (-07:00)
Updated Every 15 Minutes
Temp 49.3 °F   2.6
RH 24 %   2
Dew Pt 14.4 °F   0.6
Wet Bulb 35.2 °F   1.5
Wind Dir WSW | 245 °
Wind Spd 1.9 mph   10.8
Wind Gust 4.0 mph   25.0
WindChill 49.2 °F   1.1
Daily Min Temp 49.2 °F   2.8
Daily Max Temp 49.7 °F   2.4
Latest Rain 0.00 In
Daily Rain 0.00 In

Last 24 Hours

Squaw-Belmont 8000'

Hourly Data | America/Los_Angeles
as of 7/8/20 12:25 AM PDT
Date & Time Temp (°F) RH (%) Dew Pt (°F) Wet Bulb (°F) Wind Dir (°) Wind Spd (mph) Wind Gust (mph) WindChill (°F) Latest Rain (In) Daily Min Temp (°F) Daily Max Temp (°F) Daily Rain (In)
7/8/20 - 0000 49.7 30 19.4 36.7 WSW | 243 3.0 6.4 48.6 0.00 48.2 65.8 0.00
7/7/20 - 2300 48.6 37 23.6 37.4 WSW | 238 3.2 8.8 48.6 0.00 48.4 65.8 0.00
7/7/20 - 2200 49.5 40 26.4 38.7 SW | 234 2.5 11.0 50.2 0.00 49.2 65.8 0.00
7/7/20 - 2100 51.5 37 26.3 39.6 WSW | 251 5.2 13.4 52.6 0.00 49.2 65.8 0.00
7/7/20 - 2000 54.4 34 26.6 41.1 W | 262 5.3 13.3 56.1 0.00 49.2 65.8 0.00
7/7/20 - 1900 57.8 32 28.4 43.3 SW | 224 7.8 14.9 59.2 0.00 49.2 65.8 0.00
7/7/20 - 1800 60.2 33 30.8 45.1 SW | 236 7.2 16.2 60.8 0.00 49.2 65.8 0.00
7/7/20 - 1700 62.3 32 32.0 46.4 SSW | 212 6.1 14.6 63.0 0.00 49.2 65.8 0.00
7/7/20 - 1600 63.7 27 29.2 46.1 SW | 227 6.5 16.2 63.5 0.00 49.2 65.8 0.00
7/7/20 - 1500 63.3 25 27.0 45.1 SSW | 199 6.5 15.8 64.7 0.00 49.2 65.8 0.00
7/7/20 - 1400 65.6 24 28.3 46.5 SSW | 203 8.0 17.8 64.2 0.00 49.2 65.8 0.00
7/7/20 - 1300 62.6 22 23.4 43.8 SW | 227 9.0 20.1 61.8 0.00 49.2 64.7 0.00
7/7/20 - 1200 61.3 24 23.8 43.4 SW | 233 7.1 16.7 61.1 0.00 49.2 62.2 0.00
7/7/20 - 1100 60.0 24 23.1 42.6 SSW | 213 7.4 16.2 58.9 0.00 49.2 60.0 0.00
7/7/20 - 1000 58.9 23 20.8 41.5 SSW | 213 8.1 16.4 57.6 0.00 49.2 58.9 0.00
7/7/20 - 0900 56.8 22 17.9 39.8 SSW | 201 7.3 17.6 56.4 0.00 49.2 58.4 0.00
7/7/20 - 0800 57.1 18 14.4 39.1 SSW | 195 5.8 14.7 57.2 0.00 49.2 58.4 0.00
7/7/20 - 0700 58.0 17 13.9 39.4 SSW | 192 7.0 13.5 55.7 0.00 49.2 58.1 0.00
7/7/20 - 0600 52.0 18 10.3 35.8 S | 186 7.0 18.1 47.2 0.00 49.2 52.1 0.00
7/7/20 - 0500 49.5 19 9.4 34.3 S | 186 7.1 16.3 47.0 0.00 49.2 52.1 0.00
7/7/20 - 0400 49.5 18 8.0 34.1 SW | 221 6.8 15.5 47.6 0.00 49.2 52.1 0.00
7/7/20 - 0300 50.5 19 10.0 34.9 SW | 221 10.2 24.3 47.1 0.00 50.3 52.1 0.00
7/7/20 - 0200 50.8 22 13.3 35.8 SW | 225 11.3 20.7 47.2 0.00 50.8 52.1 0.00
7/7/20 - 0100 51.1 23 14.2 36.2 SW | 227 10.0 29.0 48.4 0.00 51.1 52.1 0.00
7/7/20 - 0000 52.1 23 15.8 37.0 SW | 230 15.1 34.1 47.6 0.00 51.8 68.6 0.00
Max 65.6 40 32.0 46.5 - 15.1 34.1 64.7 0.00 51.8 68.6 0.00
Avg 55.9 26 20.6 40.2 - 7.2 16.9 54.9 0.00 - - -
Min 48.6 17 8.0 34.1 - 2.5 6.4 47.0 0.00 48.2 52.1 0.00
Total - - - - - - - - 0.00 - - -

Last 30 Days

Squaw-Belmont 8000'

Daily Data | America/Los_Angeles
as of 7/8/20 12:25 AM PDT
Date Daily Max Temp (°F) Max Temp Time Daily Min Temp (°F) Min Temp Time Daily Rain (In) Seasonal Rainfall (In) New Snow (in) SnowDepth (in) Wind Spd (mph) Daily Max Wind (mph) Max Wind Time Max Wind Dir (°) Max RH (%) Min RH (%) Wet Bulb (°F) WetB Hrs <28F (hrs) Bat Volt Min Day (V)
7/7/20 65.8 1357 48.2 2306 0.00 97.20 - - 6.9 29.0 0003 WSW | 254 44 16 40.2 0.0 13.1
7/6/20 68.6 1325 51.8 2344 0.00 97.20 - - 11.1 34.1 2358 SSW | 210 34 12 41.0 0.0 13.0
7/5/20 69.2 1406 50.0 0416 0.00 97.20 - - 7.5 22.1 1200 WSW | 250 47 14 42.6 0.0 13.0
7/4/20 67.4 1355 50.0 0535 0.00 97.20 - - 8.4 22.2 0204 SSW | 206 46 21 43.0 0.0 13.0
7/3/20 63.2 1255 48.2 0432 0.00 97.20 - - 12.1 27.5 0551 SSW | 212 75 25 44.2 0.0 13.1
7/2/20 66.2 1347 46.4 0206 0.00 97.20 - - 6.2 19.7 2127 WSW | 246 73 31 45.5 0.0 13.1
7/1/20 64.2 1303 42.7 0317 0.00 97.20 - - 7.3 20.0 1953 WSW | 250 68 28 43.0 0.0 13.1
6/30/20 59.8 1329 42.3 0146 0.00 97.20 - - 6.2 22.4 0848 WSW | 237 66 36 41.6 0.0 13.1
6/29/20 54.3 1610 31.3 0548 0.00 97.20 - - 4.6 15.2 0053 NNE | 23 89 34 36.7 0.0 13.2
6/28/20 55.4 0650 39.2 2358 0.00 97.20 - - 12.1 41.0 1151 WSW | 238 89 24 41.4 0.0 13.2
6/27/20 72.3 1347 54.5 2359 0.00 97.20 - - 9.2 40.4 1611 SSW | 212 52 17 49.4 0.0 13.0
6/26/20 75.1 1514 57.2 0131 0.00 97.20 - - 5.4 17.5 1824 NNW | 333 61 16 51.6 0.0 13.0
6/25/20 73.6 1508 53.9 0528 0.00 97.20 - - 3.9 18.4 1808 NW | 305 85 25 53.5 0.0 13.0
6/24/20 76.4 1339 55.4 2324 0.00 97.20 - - 4.5 22.8 1711 WSW | 247 77 29 53.7 0.0 13.0
6/23/20 78.4 1332 57.9 0429 0.00 97.20 - - 3.7 17.9 1706 SSW | 197 72 24 53.1 0.0 13.0
6/22/20 75.6 1604 52.4 0545 0.00 97.20 - - 3.9 13.2 1110 ENE | 64 73 26 52.7 0.0 13.0
6/21/20 71.2 1259 47.9 0520 0.00 97.20 - - 4.5 17.3 1432 NW | 310 62 14 45.4 0.0 13.0
6/20/20 69.6 1325 51.1 0001 0.00 97.20 - - 6.6 25.6 1826 SW | 236 48 19 45.7 0.0 13.0
6/19/20 67.2 1350 43.9 0510 0.00 97.20 - - 4.5 18.1 1840 SW | 232 53 26 43.6 0.0 13.1
6/18/20 61.2 1619 38.2 0544 0.00 97.20 - - 3.7 14.9 0818 E | 99 60 17 39.1 0.0 13.1
6/17/20 52.4 1558 30.1 0519 0.00 97.20 - - 5.0 19.7 1246 E | 87 84 20 34.1 0.0 13.2
6/16/20 48.8 1226 34.7 2204 0.00 97.20 - - 11.2 34.8 1156 WSW | 239 83 23 35.4 0.2 13.2
6/15/20 55.4 1137 40.0 2356 0.00 97.20 - - 8.9 38.9 1603 WSW | 247 93 9 42.4 0.0 12.9
6/14/20 55.0 1541 33.4 0001 0.00 97.20 0.0 - 5.0 17.9 1731 WSW | 250 80 8 37.7 0.0 12.1
6/13/20 41.3 1451 27.1 0539 0.15 97.20 0.0 - 5.7 33.6 1240 WSW | 240 100 43 30.8 7.0 12.9
6/12/20 55.4 1110 29.3 2338 0.20 97.00 0.0 - 7.6 33.6 1516 SSE | 167 100 47 39.2 0.0 12.4
6/11/20 63.9 1347 48.0 0423 0.00 96.80 0.0 2.0 5.8 21.2 1637 WSW | 254 60 19 42.4 0.0 12.9
6/10/20 63.8 1404 46.3 0349 0.00 96.80 0.0 5.2 4.9 23.0 1643 WSW | 247 68 28 43.6 0.0 12.9
6/9/20 60.9 1346 38.4 0123 0.00 96.80 0.0 8.1 2.2 9.6 1655 WNW | 293 75 35 41.4 0.0 12.9
6/8/20 49.0 1719 22.6 0546 0.00 96.80 0.0 10.4 3.9 13.4 0159 ENE | 67 100 27 31.2 8.1 12.9
Max 78.4 - 57.9 - 0.20 - 0.0 10.4 12.1 41.0 - - 100 47 53.7 8.1 13.2
Avg - - - - - - 0.0 6.4 6.4 - - - - - 42.8 - -
Min 41.3 - 22.6 - 0.00 - 0.0 2.0 2.2 9.6 - - 34 8 30.8 0.0 12.1
Calm: 0.0%
Calm: 1.1%